Flight Track Log - Related Links

Times and Time Zones

All times are in EDT time to prevent confusion due to time zone crossing. See the AAL1138 flight status page for this flight to view local times or setup timezone preferences in your user account.

Time Position Orientation Groundspeed Altitude Reporting Facility
EDT Latitude Longitude Course Direction KTS MPH feet Rate Location/Type
Sat 04:16:00 PM 18.6976 -69.8452 328° Northwest  Level FlightAware
Sat 04:17:00 PM 18.7868 -69.9041 328° Northwest  Level FlightAware
Sat 04:18:00 PM 18.8761 -69.9630 328° Northwest  Level FlightAware
Sat 04:19:00 PM 18.9653 -70.0220 328° Northwest  Level FlightAware
Sat 04:20:00 PM 19.0545 -70.0811 328° Northwest  Level FlightAware
Sat 04:20:28 PM 18.5178 -70.0747 327° Northwest 462 532 20,800  Level Miami Center
Sat 04:21:00 PM 19.1334 -70.1334 325° Northwest  Level FlightAware
Sat 04:21:28 PM 18.6189 -70.1028 345° North 435 501 22,800  Level Miami Center
Sat 04:22:00 PM 19.2193 -70.1978 325° Northwest  Level FlightAware
Sat 04:23:00 PM 19.3052 -70.2622 325° Northwest  Level FlightAware
Sat 04:23:28 PM 18.8181 -70.2397 327° Northwest 409 471 28,000  Level Miami Center
Sat 04:24:00 PM 19.3977 -70.3270 327° Northwest  Level FlightAware
Sat 04:24:28 PM 18.9222 -70.2939 334° Northwest 414 476 30,400  Level Miami Center
Sat 04:25:00 PM 19.4911 -70.3904 327° Northwest  Level FlightAware
Sat 04:25:28 PM 19.0244 -70.3483 333° Northwest 420 483 32,300  Level Miami Center
Sat 04:26:28 PM 19.1264 -70.4028 333° Northwest 420 483 34,400 1,650 Climbing Miami Center
Sat 04:27:28 PM 19.2289 -70.4617 332° Northwest 420 483 35,600 800 Climbing Miami Center
Sat 04:28:28 PM 19.3311 -70.5186 332° Northwest 420 483 36,000 200 Climbing Miami Center
Sat 04:29:28 PM 19.4353 -70.5753 333° Northwest 420 483 36,000  Level Miami Center
Sat 04:30:28 PM 19.5397 -70.6344 332° Northwest 425 489 36,000  Level Miami Center
Sat 04:31:28 PM 19.6461 -70.6892 334° Northwest 425 489 36,000  Level Miami Center
Sat 04:32:28 PM 19.7481 -70.7461 332° Northwest 425 489 36,000  Level Miami Center
Sat 04:33:28 PM 19.8506 -70.8078 330° Northwest 425 489 36,000  Level Miami Center
Sat 04:34:28 PM 19.9550 -70.8672 332° Northwest 425 489 36,000  Level Miami Center
Sat 04:35:28 PM 20.0589 -70.9200 334° Northwest 425 489 36,000  Level Miami Center
Sat 04:36:28 PM 20.1572 -70.9819 329° Northwest 420 483 36,000  Level Miami Center
Sat 04:37:28 PM 20.2636 -71.0394 333° Northwest 420 483 36,000  Level Miami Center
Sat 04:38:28 PM 20.3636 -71.0969 332° Northwest 420 483 36,000  Level Miami Center
Sat 04:39:28 PM 20.4503 -71.1819 317° Northwest 425 489 36,000  Level Miami Center
Sat 04:40:28 PM 20.5231 -71.2939 305° West 420 483 36,000  Level Miami Center
Sat 04:41:28 PM 20.5875 -71.4042 302° West 425 489 36,000  Level Miami Center
Sat 04:42:28 PM 20.6536 -71.5100 304° West 432 497 36,000  Level Miami Center
Sat 04:43:28 PM 20.7175 -71.6117 304° West 427 491 36,000  Level Miami Center
Sat 04:44:28 PM 20.7836 -71.7178 304° West 427 491 36,000  Level Miami Center
Sat 04:45:28 PM 20.8475 -71.8219 303° West 427 491 36,000  Level Miami Center
Sat 04:46:28 PM 20.9114 -71.9261 303° West 421 484 36,000  Level Miami Center
Sat 04:47:28 PM 20.9794 -72.0325 304° West 426 490 36,000  Level Miami Center
Sat 04:48:28 PM 21.0453 -72.1367 304° West 426 490 36,000  Level Miami Center
Sat 04:49:28 PM 21.0978 -72.2217 304° West 426 490 36,000  Level Miami Center
Sat 04:50:28 PM 21.1769 -72.3503 303° West 426 490 36,000  Level Miami Center
Sat 04:51:28 PM 21.2447 -72.4592 304° West 431 496 36,000  Level Miami Center
Sat 04:52:28 PM 21.3103 -72.5683 303° West 431 496 36,000  Level Miami Center
Sat 04:53:28 PM 21.3781 -72.6753 304° West 431 496 36,000  Level Miami Center
Sat 04:54:28 PM 21.4433 -72.7781 304° West 426 490 36,000  Level Miami Center
Sat 04:55:28 PM 21.5067 -72.8856 302° West 426 490 36,000  Level Miami Center
Sat 04:56:28 PM 21.5719 -72.9883 304° West 426 490 36,000  Level Miami Center
Sat 04:57:28 PM 21.6331 -73.0917 302° West 426 490 36,000  Level Miami Center
Sat 04:58:28 PM 21.6961 -73.1969 303° West 421 484 36,000  Level Miami Center
Sat 04:59:28 PM 21.7631 -73.2981 305° West 426 490 36,000  Level Miami Center
Sat 05:00:28 PM 21.8242 -73.4036 302° West 421 484 36,000  Level Miami Center
Sat 05:01:28 PM 21.8847 -73.5072 302° West 421 484 36,000  Level Miami Center
Sat 05:02:28 PM 21.9367 -73.5908 304° West 421 484 36,000  Level Miami Center
Sat 05:03:28 PM 22.0103 -73.7144 303° West 421 484 36,000  Level Miami Center
Sat 05:04:28 PM 22.0606 -73.8253 296° West 416 479 36,000  Level Miami Center
Sat 05:05:28 PM 22.1253 -73.9292 304° West 411 473 36,000  Level Miami Center
Sat 05:06:28 PM 22.1919 -74.0353 304° West 422 486 36,000  Level Miami Center
Sat 05:07:28 PM 22.2506 -74.1461 300° West 422 486 36,000  Level Miami Center
Sat 05:08:28 PM 22.3169 -74.2503 305° West 422 486 36,000  Level Miami Center
Sat 05:09:28 PM 22.3814 -74.3569 303° West 422 486 36,000  Level Miami Center
Sat 05:10:28 PM 22.4439 -74.4636 302° West 427 491 36,000  Level Miami Center
Sat 05:11:28 PM 22.5061 -74.5703 302° West 422 486 36,000  Level Miami Center
Sat 05:12:28 PM 22.5703 -74.6769 303° West 422 486 36,000  Level Miami Center
Sat 05:13:28 PM 22.6303 -74.7864 301° West 422 486 36,000  Level Miami Center
Sat 05:14:28 PM 22.6944 -74.8933 303° West 422 486 36,000  Level Miami Center
Sat 05:15:28 PM 22.7583 -74.9983 303° West 422 486 36,000  Level Miami Center
Sat 05:16:28 PM 22.8225 -75.1056 303° West 422 486 36,000  Level Miami Center
Sat 05:17:28 PM 22.8819 -75.2128 301° West 422 486 36,000  Level Miami Center
Sat 05:18:28 PM 22.9439 -75.3206 302° West 422 486 36,000  Level Miami Center
Sat 05:19:28 PM 23.0075 -75.4303 302° West 422 486 36,000  Level Miami Center
Sat 05:20:28 PM 23.0711 -75.5378 303° West 422 486 36,000  Level Miami Center
Sat 05:21:28 PM 23.1328 -75.6481 301° West 422 486 36,000  Level Miami Center
Sat 05:22:28 PM 23.1878 -75.7447 302° West 422 486 36,000  Level Miami Center
Sat 05:23:28 PM 23.2575 -75.8503 306° West 427 491 36,000  Level Miami Center
Sat 05:24:28 PM 23.3439 -75.9425 316° Northwest 427 491 36,000  Level Miami Center
Sat 05:25:28 PM 23.4383 -76.0211 323° Northwest 427 491 36,000  Level Miami Center
Sat 05:26:28 PM 23.5411 -76.0883 329° Northwest 427 491 36,000  Level Miami Center
Sat 05:27:28 PM 23.6458 -76.1467 333° Northwest 427 491 36,000  Level Miami Center
Sat 05:28:28 PM 23.7028 -76.2597 299° West 406 467 36,000  Level Miami Center
Sat 05:29:28 PM 23.7347 -76.3822 286° West 406 467 36,000  Level Miami Center
Sat 05:30:28 PM 23.7767 -76.5047 291° West 418 481 36,000  Level Miami Center
Sat 05:31:28 PM 23.8272 -76.6203 296° West 418 481 36,000  Level Miami Center
Sat 05:32:28 PM 23.8858 -76.7294 300° West 418 481 36,000  Level Miami Center
Sat 05:33:28 PM 23.9422 -76.8431 299° West 418 481 36,000  Level Miami Center
Sat 05:34:28 PM 23.9925 -76.9497 297° West 416 479 36,000  Level Miami Center
Sat 05:35:28 PM 24.0236 -77.0706 286° West 409 471 36,000  Level Miami Center
Sat 05:36:28 PM 24.0528 -77.1911 285° West 409 471 36,000  Level Miami Center
Sat 05:37:28 PM 24.0964 -77.3050 293° West 409 471 36,000  Level Miami Center
Sat 05:38:28 PM 24.1522 -77.4144 299° West 404 465 36,000  Level Miami Center
Sat 05:39:28 PM 24.2125 -77.5219 302° West 410 472 36,000  Level Miami Center
Sat 05:40:28 PM 24.2725 -77.6339 300° West 418 481 36,000  Level Miami Center
Sat 05:41:28 PM 24.3325 -77.7461 300° West 423 487 36,000  Level Miami Center
Sat 05:42:28 PM 24.3944 -77.8606 301° West 423 487 36,000  Level Miami Center
Sat 05:43:28 PM 24.4544 -77.9706 301° West 423 487 36,000  Level Miami Center
Sat 05:44:28 PM 24.5203 -78.0922 301° West 423 487 36,000 -100 Level Miami Center
Sat 05:45:28 PM 24.5672 -78.2092 294° West 423 487 35,800 -450 Descending Miami Center
Sat 05:46:28 PM 24.5389 -78.3347 256° West 399 459 35,100 -750 Descending Miami Center
Sat 05:47:28 PM 24.4981 -78.4528 249° West 410 472 34,300 -2,050 Descending Miami Center
Sat 05:48:28 PM 24.4592 -78.5781 251° West 417 480 31,000 -3,200 Descending Miami Center
Sat 05:49:28 PM 24.4222 -78.7006 252° West 422 486 27,900 -2,250 Descending Miami Center
Sat 05:50:28 PM 24.3914 -78.8211 254° West 422 486 26,500 -1,500 Descending Miami Center
Sat 05:51:28 PM 24.3833 -78.9375 266° West 408 470 24,900 -1,200 Descending Miami Center
Sat 05:52:28 PM 24.4597 -79.0186 316° Northwest 347 399 24,100 -450 Descending Miami Center
Sat 05:53:28 PM 24.5506 -79.0842 327° Northwest 360 414 24,000 -50 Descending Miami Center
Sat 05:54:28 PM 24.6456 -79.1567 325° Northwest 384 442 24,000  Level Miami Center
Sat 05:55:28 PM 24.7344 -79.2222 326° Northwest 384 442 24,000 -100 Level Miami Center
Sat 05:56:28 PM 24.8317 -79.2906 327° Northwest 395 455 23,800 -1,000 Descending Miami Center
Sat 05:57:28 PM 24.9203 -79.3633 323° Northwest 395 455 22,000 -1,900 Descending Miami Center
Sat 05:58:28 PM 25.0108 -79.4339 325° Northwest 395 455 20,000 -1,950 Descending Miami Center
Sat 05:59:28 PM 25.0975 -79.5000 325° Northwest 400 460 18,100 -2,000 Descending Miami Center
Sat 06:00:28 PM 25.1778 -79.5636 324° Northwest 380 437 16,000 -1,950 Descending Miami Center
Sat 06:01:28 PM 25.2581 -79.6253 325° Northwest 370 426 14,200 -1,700 Descending Miami Center
Sat 06:02:28 PM 25.3386 -79.6869 325° Northwest 355 409 12,600 -1,463 Descending Miami Center
Sat 06:02:50 PM 25.3650 -79.7150 316° Northwest 337 388 12,200 -600 Descending Miami Center
Sat 06:03:28 PM 25.4061 -79.7550 319° Northwest 340 391 12,000 -197 Descending Miami Center
Sat 06:03:51 PM 25.4286 -79.7856 309° West 299 344 12,000 -300 Level Miami Center
Sat 06:04:28 PM 25.4550 -79.8208 310° West 305 351 11,700 -689 Descending Miami Center
Sat 06:04:52 PM 25.4669 -79.8508 294° West 238 274 11,300 -1,200 Descending Miami Center
Sat 06:05:28 PM 25.4933 -79.8814 314° West 272 313 10,500 -1,279 Descending Miami Center
Sat 06:05:53 PM 25.5053 -79.9072 297° West 234 269 10,000 -1,400 Descending Miami Center
Sat 06:06:28 PM 25.5297 -79.9400 310° West 247 284 9,100 -1,279 Descending Miami Center
Sat 06:06:54 PM 25.5458 -79.9703 301° West 231 266 8,700 -900 Descending Miami Center
Sat 06:07:28 PM 25.5514 -80.0028 281° West 235 270 8,200 -677 Descending Miami Center
Sat 06:07:56 PM 25.5506 -80.0394 269° West 224 258 8,000 -200 Descending Miami Center
Sat 06:08:28 PM 25.5542 -80.0719 277° West 225 259 8,000  Level Miami Center
Sat 06:08:57 PM 25.5556 -80.1064 273° West 226 260 8,000  Level Miami Center
Sat 06:09:28 PM 25.5589 -80.1411 276° West 225 259 8,000  Level Miami Center
Sat 06:09:58 PM 25.5600 -80.1781 272° West 226 260 8,000  Level Miami Center
Sat 06:10:28 PM 25.5636 -80.2103 277° West 225 259 8,000  Level Miami Center
Sat 06:10:59 PM 25.5647 -80.2472 272° West 226 260 8,000 -400 Level Miami Center
Sat 06:11:28 PM 25.5725 -80.2797 285° West 230 265 7,600 -985 Descending Miami Center
Sat 06:12:06 PM 25.5903 -80.3239 294° West 222 255 6,900 -1,515 Descending Miami Center
Sat 06:13:07 PM 25.6158 -80.3844 295° West 216 249 5,100 -1,487 Descending Miami Center
Sat 06:14:03 PM 25.6397 -80.4358 297° West 211 243 4,000 -718 Descending Miami Center
Sat 06:15:04 PM 25.6486 -80.5031 278° West 215 247 3,700 -422 Descending Miami Center
Sat 06:16:11 PM 25.6719 -80.5706 291° West 210 242 3,100 -328 Descending Miami Center
Sat 06:17:12 PM 25.7183 -80.5511 21° North 183 211 3,000  Descending Miami Center
Sat 06:18:13 PM 25.7489 -80.4992 57° Northeast 196 226 3,100 98 Climbing Miami Center

Login

Don't have an account? Register now (free) for customized features, flight alerts, and more!